Time;durP1;ratioP1;P1;durP2;ratioP2;P2;SDS_P1;SDS_P2;PMS_P1;PMS_P2;Temp;Humidity;BMP_temperature;BMP_pressure;BME280_temperature;BME280_humidity;BME280_pressure;Samples;Min_cycle;Max_cycle;Signal;HPM_P1;HPM_P2
2024/01/14 00:01:53;;;;;;;28.92;13.48;;;;;;;-4.87;100.00;98883.06;5130286;27;20042;-77
2024/01/14 00:04:18;;;;;;;28.38;13.80;;;;;;;-4.94;100.00;98866.66;5130596;27;20038;-79
2024/01/14 00:06:45;;;;;;;34.00;14.02;;;;;;;-5.03;100.00;98831.72;5130133;27;20023;-80
2024/01/14 00:09:11;;;;;;;31.42;14.30;;;;;;;-5.15;100.00;98828.19;5130964;27;20472;-79
2024/01/14 00:11:37;;;;;;;27.70;13.43;;;;;;;-4.87;100.00;98849.94;5103862;28;20047;-79
2024/01/14 00:14:02;;;;;;;29.25;13.73;;;;;;;-4.76;100.00;98857.28;5130490;27;20058;-79
2024/01/14 00:16:33;;;;;;;27.00;11.93;;;;;;;-4.97;99.39;98826.91;5124035;27;20018;-78
2024/01/14 00:18:59;;;;;;;33.25;13.85;;;;;;;-5.05;99.15;98801.63;5120680;27;20031;-78
2024/01/14 00:21:24;;;;;;;28.85;13.15;;;;;;;-4.53;98.24;98887.38;5097784;27;20026;-79
2024/01/14 00:23:50;;;;;;;34.38;12.98;;;;;;;-4.93;97.23;98870.91;5134504;27;20035;-79
2024/01/14 00:26:15;;;;;;;31.25;13.00;;;;;;;-5.54;95.78;98789.03;5131301;27;20099;-78
2024/01/14 00:28:40;;;;;;;32.03;13.05;;;;;;;-5.34;95.95;98867.13;5124215;27;20031;-79
2024/01/14 00:31:06;;;;;;;29.27;12.52;;;;;;;-5.58;96.58;98823.91;5134038;27;20477;-79
2024/01/14 00:33:31;;;;;;;36.08;13.55;;;;;;;-6.00;96.53;98793.50;5135094;27;20465;-79
2024/01/14 00:36:03;;;;;;;33.80;15.82;;;;;;;-5.29;97.52;98873.41;5134935;27;20019;-78
2024/01/14 00:38:29;;;;;;;33.65;14.57;;;;;;;-5.18;97.92;98896.94;5133898;27;20023;-79
2024/01/14 00:40:54;;;;;;;34.90;13.02;;;;;;;-5.63;98.55;98836.75;5133999;27;20110;-79
2024/01/14 00:43:20;;;;;;;31.05;13.25;;;;;;;-5.59;98.80;98830.41;5133837;27;20035;-79
2024/01/14 00:45:46;;;;;;;35.60;14.50;;;;;;;-5.22;99.50;98862.91;5129078;27;20020;-78
2024/01/14 00:48:11;;;;;;;37.55;14.63;;;;;;;-5.19;99.65;98873.84;5124273;27;20488;-79
2024/01/14 00:50:37;;;;;;;34.15;14.27;;;;;;;-5.19;99.83;98849.59;5133874;27;20464;-80
2024/01/14 00:53:02;;;;;;;32.05;14.25;;;;;;;-5.52;99.78;98794.88;5133573;27;20051;-77
2024/01/14 00:55:28;;;;;;;31.77;13.23;;;;;;;-5.05;99.86;98870.88;5134575;27;20098;-80
2024/01/14 00:57:53;;;;;;;31.42;13.70;;;;;;;-5.93;99.91;98721.16;5133731;27;20042;-80
2024/01/14 01:00:19;;;;;;;29.83;12.60;;;;;;;-5.12;99.84;98841.75;5133280;27;20110;-78
2024/01/14 01:02:44;;;;;;;26.80;11.73;;;;;;;-5.14;99.74;98832.44;5134993;27;20158;-79
2024/01/14 01:05:10;;;;;;;30.80;12.38;;;;;;;-5.13;99.32;98845.59;5133538;27;20023;-78
2024/01/14 01:07:35;;;;;;;32.85;12.75;;;;;;;-5.01;99.39;98842.97;5133475;27;20027;-79
2024/01/14 01:10:00;;;;;;;34.20;15.38;;;;;;;-5.19;96.99;98816.50;5134615;27;20499;-78
2024/01/14 01:12:26;;;;;;;31.25;12.93;;;;;;;-5.21;97.01;98822.22;5132525;27;20024;-79
2024/01/14 01:14:52;;;;;;;25.90;11.20;;;;;;;-5.13;98.41;98834.03;5132303;27;20020;-78
2024/01/14 01:17:17;;;;;;;23.63;11.00;;;;;;;-5.34;98.03;98791.75;5132923;27;20038;-79
2024/01/14 01:19:43;;;;;;;26.83;11.43;;;;;;;-5.31;97.01;98782.22;5132468;27;20072;-79
2024/01/14 01:22:08;;;;;;;28.20;11.70;;;;;;;-5.30;94.87;98810.69;5134029;27;20031;-79
2024/01/14 01:24:36;;;;;;;26.23;11.13;;;;;;;-5.07;95.11;98849.66;5132826;27;20023;-77
2024/01/14 01:27:02;;;;;;;29.08;12.32;;;;;;;-5.79;95.12;98753.16;5133180;27;20092;-79
2024/01/14 01:29:27;;;;;;;29.05;11.93;;;;;;;-5.46;95.74;98809.72;5115416;27;20441;-78
2024/01/14 01:31:53;;;;;;;22.27;10.45;;;;;;;-5.48;96.83;98812.75;5123409;27;20488;-79
2024/01/14 01:34:18;;;;;;;30.88;11.32;;;;;;;-6.33;97.88;98668.94;5133213;27;20023;-80
2024/01/14 01:36:44;;;;;;;27.33;12.43;;;;;;;-5.32;97.54;98826.41;5132929;27;20062;-79
2024/01/14 01:39:09;;;;;;;28.83;11.57;;;;;;;-5.88;97.86;98731.72;5132419;27;20492;-78
2024/01/14 01:41:35;;;;;;;29.95;12.15;;;;;;;-5.46;98.47;98805.13;5123682;27;20030;-78
2024/01/14 01:44:00;;;;;;;24.25;11.52;;;;;;;-5.54;98.40;98786.34;5113072;28;20477;-79
2024/01/14 01:46:26;;;;;;;28.15;11.23;;;;;;;-6.10;97.64;98713.22;5113450;28;20138;-78
2024/01/14 01:48:53;;;;;;;27.63;12.57;;;;;;;-5.75;98.81;98770.22;5128969;27;20019;-78
2024/01/14 01:51:18;;;;;;;29.27;11.88;;;;;;;-5.80;99.29;98763.13;5132497;27;20492;-79
2024/01/14 01:53:44;;;;;;;31.58;12.73;;;;;;;-5.68;99.68;98758.94;5128832;27;20116;-79
2024/01/14 01:56:10;;;;;;;38.67;15.55;;;;;;;-5.57;100.00;98757.41;5123275;27;20031;-79
2024/01/14 01:58:36;;;;;;;41.80;14.77;;;;;;;-5.36;100.00;98787.78;5119205;27;20097;-79
2024/01/14 02:01:05;;;;;;;38.47;15.48;;;;;;;-5.61;100.00;98738.47;5132283;27;20024;-79
2024/01/14 02:03:30;;;;;;;27.00;12.30;;;;;;;-5.42;99.55;98781.03;5132021;27;20072;-79
2024/01/14 02:05:57;;;;;;;35.20;13.35;;;;;;;-5.76;99.85;98718.31;5133266;27;20027;-79
2024/01/14 02:08:23;;;;;;;31.27;13.27;;;;;;;-5.41;100.00;98775.31;5132016;27;20042;-79
2024/01/14 02:10:49;;;;;;;29.05;12.45;;;;;;;-5.53;99.65;98744.88;5132365;27;20031;-79
2024/01/14 02:13:15;;;;;;;26.20;11.15;;;;;;;-5.45;99.99;98752.09;5133020;27;20076;-79
2024/01/14 02:15:40;;;;;;;20.67;9.93;;;;;;;-5.73;98.70;98675.72;5132103;27;20155;-78
2024/01/14 02:18:06;;;;;;;33.08;13.35;;;;;;;-5.43;98.32;98704.91;5118282;27;20034;-79
2024/01/14 02:20:32;;;;;;;42.70;14.63;;;;;;;-5.40;97.76;98689.97;5133254;27;20027;-79
2024/01/14 02:22:59;;;;;;;32.70;14.10;;;;;;;-5.40;97.91;98682.69;5127719;27;20063;-79
2024/01/14 02:25:25;;;;;;;36.85;14.93;;;;;;;-5.15;98.60;98733.91;5111568;28;20058;-79
2024/01/14 02:27:51;;;;;;;33.97;13.02;;;;;;;-5.37;98.77;98718.94;5128848;27;20031;-79
2024/01/14 02:30:17;;;;;;;32.10;13.65;;;;;;;-5.20;98.47;98743.00;5122405;27;20114;-79
2024/01/14 02:32:43;;;;;;;36.00;14.13;;;;;;;-5.33;98.68;98738.69;5124828;27;20038;-79
2024/01/14 02:35:08;;;;;;;28.40;13.70;;;;;;;-5.30;98.39;98731.88;5122002;27;20023;-79
2024/01/14 02:37:35;;;;;;;31.35;13.43;;;;;;;-5.21;97.91;98736.03;5117718;27;20110;-79
2024/01/14 02:40:01;;;;;;;31.67;13.07;;;;;;;-5.23;97.61;98726.69;5131130;27;20027;-80
2024/01/14 02:42:26;;;;;;;31.65;12.27;;;;;;;-5.50;97.74;98664.25;5131132;27;20027;-79
2024/01/14 02:44:52;;;;;;;32.53;13.48;;;;;;;-5.40;97.77;98669.22;5131471;27;20019;-78
2024/01/14 02:47:17;;;;;;;30.48;13.43;;;;;;;-4.96;97.17;98726.91;5131507;27;20022;-79
2024/01/14 02:49:43;;;;;;;34.80;14.18;;;;;;;-4.88;97.27;98729.84;5131671;27;20058;-79
2024/01/14 02:52:08;;;;;;;32.47;13.35;;;;;;;-4.76;97.37;98736.03;5127678;27;20416;-78
2024/01/14 02:54:34;;;;;;;31.27;12.93;;;;;;;-4.91;97.17;98707.03;5120942;27;20122;-78
2024/01/14 02:56:59;;;;;;;30.60;13.93;;;;;;;-4.70;97.46;98733.94;5131125;27;20072;-78
2024/01/14 02:59:25;;;;;;;32.38;13.70;;;;;;;-4.60;96.61;98733.47;5131259;27;20484;-77
2024/01/14 03:01:50;;;;;;;35.90;14.88;;;;;;;-5.01;96.45;98659.78;5131065;27;20084;-80
2024/01/14 03:04:16;;;;;;;33.13;14.57;;;;;;;-4.71;96.41;98721.56;5131360;27;20027;-79
2024/01/14 03:06:42;;;;;;;29.20;12.60;;;;;;;-4.66;96.36;98753.69;5130651;27;20091;-79
2024/01/14 03:09:09;;;;;;;37.80;13.23;;;;;;;-5.11;96.39;98686.34;5132641;27;20031;-80
2024/01/14 03:11:34;;;;;;;37.70;15.95;;;;;;;-4.77;95.94;98734.47;5132214;27;20027;-78
2024/01/14 03:14:00;;;;;;;28.50;12.95;;;;;;;-5.16;95.52;98700.81;5131073;27;20023;-78
2024/01/14 03:16:26;;;;;;;29.17;11.02;;;;;;;-5.45;92.89;98687.50;5115463;27;20024;-79
2024/01/14 03:18:51;;;;;;;21.38;9.40;;;;;;;-5.49;92.52;98735.81;5120864;27;20492;-79
2024/01/14 03:21:20;;;;;;;23.05;9.45;;;;;;;-5.84;93.00;98719.16;5131151;27;20150;-78
2024/01/14 03:23:46;;;;;;;20.85;9.82;;;;;;;-6.45;93.65;98660.78;5130668;27;20380;-79
2024/01/14 03:26:12;;;;;;;22.13;9.82;;;;;;;-6.16;94.70;98725.25;5132077;27;20032;-79
2024/01/14 03:28:39;;;;;;;25.85;11.82;;;;;;;-6.03;97.12;98735.00;5130908;27;20453;-79
2024/01/14 03:31:05;;;;;;;41.97;16.25;;;;;;;-5.82;98.59;98765.34;5130779;27;20153;-76
2024/01/14 03:33:30;;;;;;;42.03;15.55;;;;;;;-5.96;98.61;98708.34;5131189;27;20043;-79
2024/01/14 03:35:56;;;;;;;37.95;14.77;;;;;;;-5.81;98.98;98740.03;5130452;27;20023;-78
2024/01/14 03:38:21;;;;;;;23.38;10.30;;;;;;;-5.88;99.17;98690.56;5132086;27;20023;-79
2024/01/14 03:40:47;;;;;;;37.60;14.48;;;;;;;-5.59;99.18;98703.13;5131528;27;20469;-78
2024/01/14 03:43:12;;;;;;;31.50;13.00;;;;;;;-5.57;98.82;98669.41;5130667;27;20026;-78
2024/01/14 03:45:38;;;;;;;30.33;13.27;;;;;;;-5.21;98.45;98711.00;5126553;27;20620;-78
2024/01/14 03:48:04;;;;;;;31.55;12.73;;;;;;;-5.12;98.24;98696.31;5110240;28;20031;-79
2024/01/14 03:50:29;;;;;;;23.95;10.57;;;;;;;-5.09;97.45;98697.56;5114233;28;20164;-79
2024/01/14 03:52:55;;;;;;;30.75;12.38;;;;;;;-5.02;97.00;98689.75;5130855;27;20052;-79
2024/01/14 03:55:20;;;;;;;22.48;8.80;;;;;;;-4.98;96.17;98690.63;5126582;27;20504;-78
2024/01/14 03:57:46;;;;;;;25.83;12.77;;;;;;;-5.50;95.36;98571.97;5113933;28;20027;-79
2024/01/14 04:00:12;;;;;;;25.10;12.02;;;;;;;-4.94;94.68;98664.59;5131467;27;20423;-78
2024/01/14 04:02:38;;;;;;;29.00;11.35;;;;;;;-4.67;94.22;98695.50;5134559;27;20608;-78
2024/01/14 04:05:04;;;;;;;45.25;16.25;;;;;;;-4.55;94.17;98692.81;5130620;27;20020;-76
2024/01/14 04:07:30;;;;;;;24.35;12.20;;;;;;;-4.68;91.89;98723.56;5107490;27;20027;-79
2024/01/14 04:09:55;;;;;;;36.53;12.93;;;;;;;-5.36;91.23;98685.47;5135802;27;20127;-77
2024/01/14 04:12:21;;;;;;;30.33;13.32;;;;;;;-5.38;92.75;98682.34;5134073;27;20030;-80
2024/01/14 04:14:46;;;;;;;30.58;13.00;;;;;;;-5.40;94.95;98674.59;5135539;27;20027;-78
2024/01/14 04:17:12;;;;;;;32.10;12.93;;;;;;;-5.24;95.86;98687.47;5124750;27;20027;-80
2024/01/14 04:19:38;;;;;;;32.65;12.35;;;;;;;-5.07;95.50;98688.06;5130986;27;20046;-79
2024/01/14 04:22:04;;;;;;;29.13;12.15;;;;;;;-5.06;95.37;98670.75;5126173;27;20073;-78
2024/01/14 04:24:29;;;;;;;29.13;11.90;;;;;;;-4.93;94.67;98683.13;5129675;27;20036;-79
2024/01/14 04:26:55;;;;;;;28.05;11.50;;;;;;;-5.13;94.01;98658.97;5134225;27;20100;-79
2024/01/14 04:29:20;;;;;;;26.38;12.10;;;;;;;-5.21;92.32;98657.16;5133583;27;20035;-78
2024/01/14 04:31:46;;;;;;;36.10;10.57;;;;;;;-5.36;92.20;98672.03;5124661;27;20397;-78
2024/01/14 04:34:11;;;;;;;22.52;8.88;;;;;;;-5.45;91.47;98701.72;5129595;27;20037;-79
2024/01/14 04:36:37;;;;;;;20.85;8.65;;;;;;;-5.58;92.39;98688.56;5125108;27;20481;-78
2024/01/14 04:39:02;;;;;;;20.67;9.85;;;;;;;-6.05;91.78;98659.22;5113279;28;20477;-78
2024/01/14 04:41:28;;;;;;;21.83;9.93;;;;;;;-5.80;93.16;98713.91;5122576;27;20035;-78
2024/01/14 04:43:54;;;;;;;23.45;10.43;;;;;;;-5.87;93.91;98727.13;5135074;27;20023;-79
2024/01/14 04:46:20;;;;;;;26.40;10.65;;;;;;;-6.02;95.43;98684.66;5133696;27;20451;-80
2024/01/14 04:48:45;;;;;;;26.10;11.63;;;;;;;-5.97;95.53;98692.56;5119667;27;20024;-79
2024/01/14 04:51:11;;;;;;;29.73;11.48;;;;;;;-5.98;96.59;98688.28;5126680;27;20121;-78
2024/01/14 04:53:36;;;;;;;26.77;11.07;;;;;;;-5.90;96.63;98690.09;5128321;27;20054;-80
2024/01/14 04:56:07;;;;;;;25.60;10.98;;;;;;;-5.42;96.55;98736.06;5124752;27;20084;-79
2024/01/14 04:58:33;;;;;;;27.95;10.20;;;;;;;-5.67;97.19;98679.78;5116931;27;20500;-79
2024/01/14 05:00:58;;;;;;;20.27;9.98;;;;;;;-5.72;97.52;98626.16;5133062;27;20059;-79
2024/01/14 05:03:24;;;;;;;22.17;9.52;;;;;;;-5.43;97.54;98640.28;5134804;27;20521;-79
2024/01/14 05:05:49;;;;;;;25.00;10.32;;;;;;;-5.25;97.29;98675.91;5133696;27;20023;-78
2024/01/14 05:08:14;;;;;;;22.08;10.10;;;;;;;-5.02;96.68;98674.38;5132011;27;20027;-78
2024/01/14 05:10:40;;;;;;;22.65;10.15;;;;;;;-4.90;96.13;98676.28;5133091;27;20083;-79
2024/01/14 05:13:05;;;;;;;21.15;9.57;;;;;;;-4.80;95.32;98683.13;5132742;27;20088;-79
2024/01/14 05:15:31;;;;;;;19.58;8.63;;;;;;;-5.03;95.02;98656.63;5124560;27;20027;-79
2024/01/14 05:17:56;;;;;;;26.35;10.43;;;;;;;-4.86;94.80;98671.00;5115089;27;20437;-79
2024/01/14 05:20:22;;;;;;;21.40;10.27;;;;;;;-4.88;94.75;98670.56;5133311;27;20418;-79
2024/01/14 05:22:48;;;;;;;25.08;10.25;;;;;;;-4.80;94.19;98680.44;5133288;27;20023;-79
2024/01/14 05:25:13;;;;;;;23.95;10.07;;;;;;;-4.84;94.04;98682.25;5132921;27;20019;-79
2024/01/14 05:27:38;;;;;;;28.35;10.00;;;;;;;-5.04;94.12;98644.28;5134186;27;20553;-78
2024/01/14 05:30:04;;;;;;;25.20;11.07;;;;;;;-5.00;93.83;98642.47;5134693;27;20098;-78
2024/01/14 05:32:30;;;;;;;25.63;11.45;;;;;;;-5.09;93.82;98628.34;5132847;27;20038;-79
2024/01/14 05:34:55;;;;;;;17.83;9.43;;;;;;;-5.09;93.34;98638.31;5133008;27;20569;-79
2024/01/14 05:37:21;;;;;;;26.88;10.60;;;;;;;-4.79;92.60;98706.28;5131994;27;20045;-79
2024/01/14 05:39:46;;;;;;;31.40;12.25;;;;;;;-5.25;91.30;98677.81;5132799;27;20035;-79
2024/01/14 05:42:12;;;;;;;28.80;13.13;;;;;;;-5.28;91.89;98691.91;5132917;27;20119;-79
2024/01/14 05:44:37;;;;;;;31.50;14.13;;;;;;;-5.54;92.18;98663.34;5132750;27;20031;-78
2024/01/14 05:47:03;;;;;;;25.88;10.85;;;;;;;-5.57;92.37;98685.53;5132195;27;20019;-78
2024/01/14 05:49:28;;;;;;;28.30;10.70;;;;;;;-5.83;93.52;98636.53;5132925;27;20115;-78
2024/01/14 05:51:54;;;;;;;29.25;11.98;;;;;;;-5.57;94.14;98664.00;5131870;27;20092;-78
2024/01/14 05:54:19;;;;;;;23.77;10.95;;;;;;;-5.34;93.80;98694.81;5132368;27;20027;-78
2024/01/14 05:56:45;;;;;;;24.85;10.23;;;;;;;-5.76;94.62;98617.97;5133198;27;20030;-80
2024/01/14 05:59:10;;;;;;;45.58;17.20;;;;;;;-5.52;95.30;98634.19;5133464;27;20024;-79
2024/01/14 06:01:37;;;;;;;38.88;18.20;;;;;;;-5.28;95.50;98651.53;5131902;27;20114;-77
2024/01/14 06:04:02;;;;;;;95.35;38.95;;;;;;;-5.30;95.24;98635.69;5132751;27;20015;-78
2024/01/14 06:06:28;;;;;;;49.45;26.23;;;;;;;-5.16;95.95;98643.47;5133138;27;20468;-79
2024/01/14 06:08:53;;;;;;;46.33;24.25;;;;;;;-5.12;96.28;98647.84;5132068;27;20032;-78
2024/01/14 06:11:19;;;;;;;24.90;12.48;;;;;;;-4.80;96.15;98669.66;5131716;27;20031;-78
2024/01/14 06:13:45;;;;;;;29.67;12.02;;;;;;;-4.76;95.94;98654.41;5132067;27;20023;-79
2024/01/14 06:16:11;;;;;;;64.53;21.08;;;;;;;-4.49;95.28;98659.13;5132144;27;20050;-78
2024/01/14 06:18:39;;;;;;;29.73;11.77;;;;;;;-4.50;95.20;98649.44;5131942;27;20057;-80
2024/01/14 06:21:04;;;;;;;38.53;18.67;;;;;;;-4.43;94.43;98665.84;5116524;27;20556;-79
2024/01/14 06:23:30;;;;;;;30.13;13.38;;;;;;;-4.31;94.40;98671.25;5120806;27;20034;-80
2024/01/14 06:25:56;;;;;;;22.70;10.02;;;;;;;-4.00;93.80;98696.81;5117248;27;20121;-79
2024/01/14 06:28:22;;;;;;;22.25;10.48;;;;;;;-4.15;93.48;98682.09;5132042;27;20076;-80
2024/01/14 06:30:48;;;;;;;23.02;10.95;;;;;;;-3.88;93.03;98692.19;5118141;27;20474;-79
2024/01/14 06:33:13;;;;;;;21.02;10.82;;;;;;;-3.98;92.44;98675.69;5131934;27;20110;-78
2024/01/14 06:35:39;;;;;;;31.50;11.52;;;;;;;-3.87;92.33;98672.16;5131455;27;20065;-79
2024/01/14 06:38:04;;;;;;;28.33;13.77;;;;;;;-3.84;92.35;98676.88;5131424;27;20019;-79
2024/01/14 06:40:30;;;;;;;33.38;15.02;;;;;;;-3.52;91.90;98693.19;5132455;27;20511;-79
2024/01/14 06:42:55;;;;;;;35.40;14.50;;;;;;;-3.48;91.71;98685.97;5131496;27;20019;-79
2024/01/14 06:45:21;;;;;;;27.42;12.15;;;;;;;-3.84;91.25;98619.41;5131046;27;20023;-79
2024/01/14 06:47:46;;;;;;;22.50;9.60;;;;;;;-3.31;91.06;98675.66;5132931;27;20026;-78
2024/01/14 06:50:13;;;;;;;23.70;10.48;;;;;;;-3.51;90.27;98635.38;5132628;27;20455;-79
2024/01/14 06:52:39;;;;;;;23.92;10.25;;;;;;;-3.18;89.84;98657.47;5132607;27;20142;-79
2024/01/14 06:55:05;;;;;;;25.58;9.63;;;;;;;-3.32;89.49;98622.00;5131122;27;20110;-79
2024/01/14 06:57:32;;;;;;;17.55;8.35;;;;;;;-2.83;88.05;98664.91;5132212;27;20027;-78
2024/01/14 07:00:01;;;;;;;20.20;8.77;;;;;;;-3.03;87.23;98613.47;5130976;27;20055;-78
2024/01/14 07:02:27;;;;;;;18.65;8.63;;;;;;;-3.58;86.40;98522.56;5131392;27;20031;-79
2024/01/14 07:04:52;;;;;;;21.70;8.30;;;;;;;-2.55;84.81;98647.44;5132183;27;20031;-78
2024/01/14 07:07:18;;;;;;;24.17;9.35;;;;;;;-2.55;84.05;98620.41;5132377;27;20106;-79
2024/01/14 07:09:44;;;;;;;21.77;8.40;;;;;;;-2.62;82.98;98620.25;5131330;27;20503;-78
2024/01/14 07:12:09;;;;;;;20.40;9.30;;;;;;;-2.48;84.06;98625.97;5132871;27;20109;-79
2024/01/14 07:14:35;;;;;;;24.63;11.25;;;;;;;-2.19;85.65;98642.84;5130526;27;20488;-79
2024/01/14 07:17:00;;;;;;;26.77;11.82;;;;;;;-2.17;82.90;98630.50;5113257;27;20042;-78
2024/01/14 07:19:26;;;;;;;25.65;12.18;;;;;;;-2.24;80.72;98605.25;5114046;27;20021;-78
2024/01/14 07:21:51;;;;;;;21.63;9.98;;;;;;;-1.64;80.57;98652.50;5130536;27;20168;-78
2024/01/14 07:24:17;;;;;;;29.73;14.70;;;;;;;-1.46;80.22;98650.16;5116977;27;20465;-79
2024/01/14 07:26:43;;;;;;;27.38;11.13;;;;;;;-1.42;79.99;98599.50;5132522;27;20025;-78
2024/01/14 07:29:08;;;;;;;29.00;15.20;;;;;;;-0.99;78.08;98637.06;5113568;27;20503;-79
2024/01/14 07:31:34;;;;;;;23.80;12.85;;;;;;;-1.00;77.08;98602.97;5122557;27;20019;-81
2024/01/14 07:33:59;;;;;;;25.45;12.43;;;;;;;-0.60;74.75;98629.56;5122169;27;20511;-79
2024/01/14 07:36:25;;;;;;;26.48;13.25;;;;;;;-0.59;73.62;98573.38;5117471;27;20034;-79
2024/01/14 07:38:51;;;;;;;22.98;10.40;;;;;;;-0.27;72.26;98596.31;5104020;28;20027;-80
2024/01/14 07:41:17;;;;;;;21.50;10.75;;;;;;;-0.01;70.46;98603.66;5128389;27;20023;-81
2024/01/14 07:43:43;;;;;;;22.20;9.13;;;;;;;0.19;70.92;98623.28;5135061;27;20080;-80
2024/01/14 07:46:09;;;;;;;16.88;7.93;;;;;;;0.25;68.94;98600.88;5135053;27;20023;-82
2024/01/14 07:48:35;;;;;;;19.77;8.50;;;;;;;0.00;70.71;98559.81;5123104;27;20038;-79
2024/01/14 07:51:02;;;;;;;22.70;8.85;;;;;;;0.65;70.01;98627.34;5113810;28;20055;-79
2024/01/14 07:53:28;;;;;;;17.90;8.73;;;;;;;0.90;69.62;98619.44;5115695;28;20100;-80
2024/01/14 07:55:54;;;;;;;16.23;8.02;;;;;;;1.06;67.93;98619.19;5114985;28;20493;-82
2024/01/14 07:58:20;;;;;;;16.58;9.43;;;;;;;0.71;67.40;98566.03;5118902;27;20038;-79
2024/01/14 08:00:46;;;;;;;17.80;8.98;;;;;;;0.96;67.22;98593.47;5135053;27;20023;-79
2024/01/14 08:03:11;;;;;;;15.95;8.32;;;;;;;1.13;66.30;98581.16;5116967;27;20031;-78
2024/01/14 08:05:40;;;;;;;23.75;9.10;;;;;;;1.52;64.27;98587.66;5116584;27;20121;-79
2024/01/14 08:08:06;;;;;;;14.07;6.80;;;;;;;1.35;63.42;98544.00;5114340;27;20060;-79
2024/01/14 08:10:32;;;;;;;15.32;7.43;;;;;;;1.74;62.88;98571.47;5115035;28;20496;-79
2024/01/14 08:12:59;;;;;;;15.25;7.53;;;;;;;1.69;61.89;98539.16;5119692;27;20744;-81
2024/01/14 08:15:25;;;;;;;16.00;7.82;;;;;;;1.72;59.59;98565.63;5114052;28;20024;-79
2024/01/14 08:17:50;;;;;;;17.25;8.43;;;;;;;1.67;57.45;98550.44;5116539;27;20043;-79
2024/01/14 08:20:16;;;;;;;18.60;9.13;;;;;;;1.91;58.04;98573.50;5126125;27;20510;-78
2024/01/14 08:22:41;;;;;;;20.60;10.20;;;;;;;1.95;56.52;98575.09;5107825;28;20054;-79
2024/01/14 08:25:08;;;;;;;18.73;9.80;;;;;;;2.46;55.52;98606.84;5115292;27;20157;-78
2024/01/14 08:27:34;;;;;;;12.73;6.35;;;;;;;2.54;52.31;98588.53;5131234;27;20050;-79
2024/01/14 08:30:00;;;;;;;13.15;5.57;;;;;;;2.57;50.15;98583.09;5122077;27;20070;-78
2024/01/14 08:32:25;;;;;;;13.18;6.53;;;;;;;2.59;50.90;98558.97;5129067;27;20458;-79
2024/01/14 08:34:51;;;;;;;11.30;5.97;;;;;;;3.15;49.77;98596.44;5131756;27;20257;-79
2024/01/14 08:37:16;;;;;;;13.57;7.25;;;;;;;3.29;50.08;98587.47;5132774;27;20050;-79
2024/01/14 08:39:42;;;;;;;18.75;8.90;;;;;;;3.03;50.11;98536.00;5131538;27;20102;-80
2024/01/14 08:42:08;;;;;;;16.33;6.90;;;;;;;3.52;50.87;98570.66;5129414;27;20035;-79
2024/01/14 08:44:34;;;;;;;14.18;6.43;;;;;;;3.28;50.01;98537.53;5113403;28;20028;-79
2024/01/14 08:47:00;;;;;;;11.38;5.93;;;;;;;3.48;49.58;98561.72;5129625;27;20022;-79
2024/01/14 08:49:29;;;;;;;9.63;5.75;;;;;;;3.50;50.19;98556.63;5133049;27;20077;-80
2024/01/14 08:51:55;;;;;;;12.23;6.38;;;;;;;3.33;52.32;98530.13;5133126;27;20605;-79
2024/01/14 08:54:22;;;;;;;9.35;5.75;;;;;;;2.93;51.20;98506.75;5133334;27;20050;-79
2024/01/14 08:56:47;;;;;;;12.95;7.70;;;;;;;2.98;50.16;98522.75;5134780;27;20024;-79
2024/01/14 08:59:12;;;;;;;20.63;10.88;;;;;;;2.87;50.37;98509.09;5122608;27;20105;-79
2024/01/14 09:01:38;;;;;;;15.35;8.82;;;;;;;3.16;50.18;98546.13;5130344;27;20023;-79
2024/01/14 09:04:04;;;;;;;61.67;43.55;;;;;;;2.82;50.50;98495.84;5133019;27;20118;-78
2024/01/14 09:06:29;;;;;;;18.15;11.40;;;;;;;2.97;52.04;98508.31;5119092;27;20019;-78
2024/01/14 09:08:55;;;;;;;49.50;28.55;;;;;;;2.74;51.45;98461.56;5133015;27;20466;-79
2024/01/14 09:11:20;;;;;;;18.92;9.32;;;;;;;3.19;50.61;98525.47;5134054;27;20042;-81
2024/01/14 09:13:45;;;;;;;16.00;7.05;;;;;;;3.37;50.71;98533.66;5132484;27;20031;-79
2024/01/14 09:16:12;;;;;;;11.77;6.50;;;;;;;3.41;48.52;98532.47;5132754;27;20066;-78
2024/01/14 09:18:37;;;;;;;15.43;9.73;;;;;;;3.49;47.73;98530.50;5132181;27;20067;-79
2024/01/14 09:21:03;;;;;;;10.57;6.10;;;;;;;3.46;48.27;98523.06;5132562;27;20070;-80
2024/01/14 09:23:29;;;;;;;9.45;6.22;;;;;;;3.67;46.63;98528.50;5132055;27;20031;-79
2024/01/14 09:25:56;;;;;;;8.27;5.20;;;;;;;3.68;46.23;98530.81;5132209;27;20475;-79
2024/01/14 09:28:24;;;;;;;12.30;5.05;;;;;;;3.65;44.48;98506.25;5124907;27;20031;-79
2024/01/14 09:30:50;;;;;;;10.18;4.10;;;;;;;3.60;43.81;98468.44;5112664;27;20091;-80
2024/01/14 09:33:16;;;;;;;11.82;5.10;;;;;;;3.80;44.38;98474.22;5133731;27;20452;-79
2024/01/14 09:35:42;;;;;;;8.15;4.60;;;;;;;4.02;43.80;98497.53;5133560;27;20019;-80
2024/01/14 09:38:08;;;;;;;13.15;6.72;;;;;;;4.00;45.13;98492.47;5132478;27;20114;-78
2024/01/14 09:40:35;;;;;;;10.30;5.05;;;;;;;3.99;44.00;98482.69;5131677;27;20457;-80
2024/01/14 09:43:04;;;;;;;10.15;5.18;;;;;;;4.31;43.96;98503.63;5132137;27;20106;-79
2024/01/14 09:45:39;;;;;;;13.05;5.47;;;;;;;3.91;43.54;98423.03;5131692;27;20507;-80
2024/01/14 09:48:04;;;;;;;11.10;5.43;;;;;;;4.20;45.01;98465.41;5121529;27;20085;-78
2024/01/14 09:50:31;;;;;;;10.68;6.65;;;;;;;4.15;44.99;98429.53;5119528;27;20059;-79
2024/01/14 09:52:58;;;;;;;13.25;5.85;;;;;;;4.45;44.03;98452.38;5111766;28;20485;-79
2024/01/14 09:55:25;;;;;;;13.00;6.57;;;;;;;4.29;43.98;98413.00;5123483;27;20042;-80
2024/01/14 09:57:52;;;;;;;16.42;7.55;;;;;;;3.96;43.72;98363.25;5113186;27;20038;-79
2024/01/14 10:00:21;;;;;;;11.30;6.13;;;;;;;4.68;43.02;98449.06;5110946;28;20042;-79
2024/01/14 10:02:47;;;;;;;13.30;5.15;;;;;;;4.57;42.60;98448.38;5125161;27;20034;-78
2024/01/14 10:05:14;;;;;;;10.35;4.75;;;;;;;4.45;42.74;98418.75;5118643;27;20019;-80
2024/01/14 10:07:41;;;;;;;9.97;5.10;;;;;;;4.72;42.67;98454.50;5131531;27;20415;-78
2024/01/14 10:10:07;;;;;;;10.00;4.68;;;;;;;5.03;42.24;98466.34;5132485;27;20472;-78
2024/01/14 10:12:33;;;;;;;12.95;5.68;;;;;;;4.68;42.00;98432.66;5131443;27;20047;-78
2024/01/14 10:14:59;;;;;;;12.70;6.03;;;;;;;5.11;44.06;98451.44;5132012;27;20074;-78
2024/01/14 10:17:26;;;;;;;9.70;5.80;;;;;;;4.94;43.38;98419.53;5108146;27;20032;-80
2024/01/14 10:19:53;;;;;;;12.50;5.50;;;;;;;4.76;43.48;98393.06;5128389;27;20024;-79
2024/01/14 10:22:19;;;;;;;12.13;6.10;;;;;;;5.08;42.20;98438.53;5121204;27;20027;-78
2024/01/14 10:24:55;;;;;;;12.02;6.10;;;;;;;5.25;42.75;98440.31;5128981;27;20050;-78
2024/01/14 10:27:25;;;;;;;22.08;6.65;;;;;;;5.09;43.12;98435.41;5131914;27;20121;-80
2024/01/14 10:29:51;;;;;;;16.13;8.15;;;;;;;5.17;41.65;98427.91;5130227;27;20018;-78
2024/01/14 10:32:18;;;;;;;14.05;7.38;;;;;;;5.18;42.03;98426.72;5127515;27;20555;-78
2024/01/14 10:34:44;;;;;;;26.70;9.30;;;;;;;5.07;43.07;98412.34;5117728;27;20469;-77
2024/01/14 10:37:11;;;;;;;14.75;6.90;;;;;;;5.03;43.15;98395.97;5130716;27;20416;-77
2024/01/14 10:39:38;;;;;;;14.20;7.20;;;;;;;4.97;42.10;98400.31;5123141;27;20051;-78
2024/01/14 10:42:04;;;;;;;15.97;6.77;;;;;;;4.77;40.76;98372.75;5130920;27;20046;-78
2024/01/14 10:44:30;;;;;;;15.35;7.65;;;;;;;4.97;41.48;98364.72;5118818;27;20046;-79
2024/01/14 10:47:01;;;;;;;16.05;8.68;;;;;;;5.23;41.28;98390.66;5125914;27;20073;-79
2024/01/14 10:49:27;;;;;;;13.02;6.35;;;;;;;5.31;40.82;98395.63;5102918;27;20020;-79
2024/01/14 10:52:24;;;;;;;13.02;7.30;;;;;;;5.74;41.50;98415.09;5115556;27;20070;-79
2024/01/14 10:54:55;;;;;;;16.40;6.53;;;;;;;5.62;41.15;98390.97;5113601;27;20135;-78
2024/01/14 10:57:24;;;;;;;18.33;9.57;;;;;;;5.76;40.20;98417.44;5110866;27;20019;-78
2024/01/14 10:59:55;;;;;;;12.70;6.43;;;;;;;5.53;41.27;98387.19;5116842;27;20135;-78
2024/01/14 11:02:21;;;;;;;12.32;6.05;;;;;;;5.37;40.34;98354.09;5129094;27;20023;-80
2024/01/14 11:04:47;;;;;;;10.40;5.88;;;;;;;5.79;39.43;98385.69;5116075;27;20477;-77
2024/01/14 11:07:13;;;;;;;17.42;8.23;;;;;;;6.04;40.17;98392.41;5112118;27;20559;-80
2024/01/14 11:09:41;;;;;;;11.82;6.32;;;;;;;6.30;41.00;98390.06;5116315;27;20106;-79
2024/01/14 11:12:14;;;;;;;15.95;7.00;;;;;;;6.30;41.27;98390.84;5102574;28;20405;-78
2024/01/14 11:15:12;;;;;;;14.32;5.80;;;;;;;6.27;41.83;98382.69;5119403;27;20046;-80
2024/01/14 11:18:02;;;;;;;9.70;5.22;;;;;;;6.36;42.72;98383.69;5126404;27;20772;-81